Time;durP1;ratioP1;P1;durP2;ratioP2;P2;SDS_P1;SDS_P2;PMS_P1;PMS_P2;Temp;Humidity;BMP_temperature;BMP_pressure;BME280_temperature;BME280_humidity;BME280_pressure;Samples;Min_cycle;Max_cycle;Signal;HPM_P1;HPM_P2
2021/05/25 00:01:04;;;;;;;2.50;1.30;;;;;;;;;;6265275;22;20400;-80
2021/05/25 00:03:31;;;;;;;4.00;1.40;;;;;;;;;;6270736;22;20396;-80
2021/05/25 00:05:59;;;;;;;1.87;1.53;;;;;;;;;;6272728;22;20414;-80
2021/05/25 00:08:26;;;;;;;2.73;1.10;;;;;;;;;;6266847;22;21002;-80
2021/05/25 00:10:53;;;;;;;3.33;1.30;;;;;;;;;;6271267;22;20396;-81
2021/05/25 00:13:21;;;;;;;2.73;1.13;;;;;;;;;;6246406;22;20398;-81
2021/05/25 00:15:52;;;;;;;1.17;1.00;;;;;;;;;;6267809;22;20404;-81
2021/05/25 00:18:20;;;;;;;2.50;1.37;;;;;;;;;;6272799;22;20423;-80
2021/05/25 00:20:47;;;;;;;1.63;1.17;;;;;;;;;;6245416;22;20857;-80
2021/05/25 00:23:16;;;;;;;1.80;1.20;;;;;;;;;;6271599;22;20408;-80
2021/05/25 00:25:43;;;;;;;1.77;1.00;;;;;;;;;;6273076;22;20431;-81
2021/05/25 00:28:10;;;;;;;2.70;1.30;;;;;;;;;;6266793;22;20410;-80
2021/05/25 00:30:37;;;;;;;1.83;1.20;;;;;;;;;;6269155;22;20410;-81
2021/05/25 00:33:04;;;;;;;2.10;1.53;;;;;;;;;;6274397;22;20400;-81
2021/05/25 00:35:35;;;;;;;3.73;1.90;;;;;;;;;;6268784;22;20396;-80
2021/05/25 00:38:01;;;;;;;2.17;1.47;;;;;;;;;;6242636;22;20400;-81
2021/05/25 00:40:28;;;;;;;1.20;0.90;;;;;;;;;;6273764;22;20931;-80
2021/05/25 00:42:55;;;;;;;1.83;0.90;;;;;;;;;;6272695;22;20763;-81
2021/05/25 00:45:23;;;;;;;1.20;0.93;;;;;;;;;;6272085;22;20399;-81
2021/05/25 00:47:50;;;;;;;1.10;1.00;;;;;;;;;;6262068;22;20982;-81
2021/05/25 00:50:19;;;;;;;1.20;0.90;;;;;;;;;;6258618;22;20456;-81
2021/05/25 00:52:47;;;;;;;1.07;0.97;;;;;;;;;;6269697;22;20431;-80
2021/05/25 00:55:15;;;;;;;1.63;1.10;;;;;;;;;;6266863;22;20418;-80
2021/05/25 00:57:43;;;;;;;1.00;0.90;;;;;;;;;;6273702;22;20404;-80
2021/05/25 01:00:12;;;;;;;1.63;1.00;;;;;;;;;;6246138;22;20474;-80
2021/05/25 01:02:40;;;;;;;1.03;0.80;;;;;;;;;;6274719;22;20400;-82
2021/05/25 01:05:09;;;;;;;1.13;0.93;;;;;;;;;;6275140;22;20404;-81
2021/05/25 01:07:36;;;;;;;1.50;1.03;;;;;;;;;;6271753;22;20498;-81
2021/05/25 01:10:03;;;;;;;1.00;0.90;;;;;;;;;;6275305;22;20809;-81
2021/05/25 01:12:32;;;;;;;1.93;1.00;;;;;;;;;;6272518;22;20399;-81
2021/05/25 01:15:03;;;;;;;1.60;0.90;;;;;;;;;;6269942;22;20491;-81
2021/05/25 01:17:30;;;;;;;1.30;0.90;;;;;;;;;;6274608;22;20411;-80
2021/05/25 01:19:59;;;;;;;1.50;1.00;;;;;;;;;;6273617;22;20447;-81
2021/05/25 01:22:26;;;;;;;1.00;0.83;;;;;;;;;;6275426;22;20396;-81
2021/05/25 01:24:53;;;;;;;1.13;0.90;;;;;;;;;;6276746;22;20762;-79
2021/05/25 01:27:20;;;;;;;1.57;0.90;;;;;;;;;;6276445;22;20423;-80
2021/05/25 01:29:48;;;;;;;7.90;1.10;;;;;;;;;;6276890;22;20422;-81
2021/05/25 01:32:15;;;;;;;2.40;1.00;;;;;;;;;;6274425;22;20874;-81
2021/05/25 01:34:42;;;;;;;1.10;0.90;;;;;;;;;;6246022;22;21037;-81
2021/05/25 01:37:09;;;;;;;1.67;0.90;;;;;;;;;;6272876;22;20733;-82
2021/05/25 01:39:37;;;;;;;1.00;0.90;;;;;;;;;;6247451;22;20456;-82
2021/05/25 01:42:04;;;;;;;2.23;0.90;;;;;;;;;;6273988;22;20396;-82
2021/05/25 01:44:31;;;;;;;1.00;0.90;;;;;;;;;;6274297;22;20449;-81
2021/05/25 01:46:58;;;;;;;2.80;0.90;;;;;;;;;;6277423;22;20450;-81
2021/05/25 01:49:25;;;;;;;0.90;0.80;;;;;;;;;;6274478;22;20446;-81
2021/05/25 01:51:53;;;;;;;2.80;1.00;;;;;;;;;;6272707;22;20423;-81
2021/05/25 01:54:20;;;;;;;3.23;1.00;;;;;;;;;;6271530;22;20415;-81
2021/05/25 01:56:48;;;;;;;1.03;0.93;;;;;;;;;;6273597;22;20392;-82
2021/05/25 01:59:15;;;;;;;1.10;1.00;;;;;;;;;;6273923;22;20448;-81
2021/05/25 02:01:42;;;;;;;1.70;1.00;;;;;;;;;;6267216;22;20407;-80
2021/05/25 02:04:09;;;;;;;1.10;0.97;;;;;;;;;;6265322;22;20487;-82
2021/05/25 02:06:35;;;;;;;1.47;0.90;;;;;;;;;;6268504;22;20400;-81
2021/05/25 02:09:02;;;;;;;1.40;0.93;;;;;;;;;;6265875;22;20901;-80
2021/05/25 02:11:29;;;;;;;1.20;1.10;;;;;;;;;;6269263;22;20400;-80
2021/05/25 02:13:57;;;;;;;2.07;0.97;;;;;;;;;;6274003;22;20407;-81
2021/05/25 02:16:24;;;;;;;1.43;1.20;;;;;;;;;;6272982;22;20881;-80
2021/05/25 02:18:51;;;;;;;1.30;0.93;;;;;;;;;;6270142;22;20982;-81
2021/05/25 02:21:19;;;;;;;1.57;1.10;;;;;;;;;;6246160;22;20411;-81
2021/05/25 02:23:47;;;;;;;2.90;1.17;;;;;;;;;;6271900;22;20400;-81
2021/05/25 02:26:14;;;;;;;3.03;1.20;;;;;;;;;;6274461;22;20396;-80
2021/05/25 02:28:41;;;;;;;1.53;0.80;;;;;;;;;;6272172;22;20422;-81
2021/05/25 02:31:09;;;;;;;1.07;0.90;;;;;;;;;;6247829;22;20788;-81
2021/05/25 02:33:36;;;;;;;1.63;0.80;;;;;;;;;;6246829;22;20747;-81
2021/05/25 02:36:04;;;;;;;1.63;1.00;;;;;;;;;;6264334;22;20400;-81
2021/05/25 02:38:32;;;;;;;1.20;0.90;;;;;;;;;;6242467;22;20446;-81
2021/05/25 02:40:59;;;;;;;1.13;0.93;;;;;;;;;;6273330;22;20428;-80
2021/05/25 02:43:27;;;;;;;1.30;0.97;;;;;;;;;;6246175;22;20407;-80
2021/05/25 02:45:54;;;;;;;1.87;0.97;;;;;;;;;;6273803;22;20404;-80
2021/05/25 02:48:23;;;;;;;1.00;0.83;;;;;;;;;;6267544;22;20942;-80
2021/05/25 02:50:50;;;;;;;2.20;1.20;;;;;;;;;;6271285;22;20777;-80
2021/05/25 02:53:17;;;;;;;7.17;1.07;;;;;;;;;;6273668;22;20770;-80
2021/05/25 02:55:44;;;;;;;1.30;1.10;;;;;;;;;;6267241;22;20403;-80
2021/05/25 02:58:12;;;;;;;1.50;1.00;;;;;;;;;;6265086;22;20418;-81
2021/05/25 03:00:39;;;;;;;1.10;1.00;;;;;;;;;;6271524;22;20447;-81
2021/05/25 03:03:07;;;;;;;1.70;0.97;;;;;;;;;;6272089;22;20518;-81
2021/05/25 03:05:36;;;;;;;2.30;1.40;;;;;;;;;;6267945;22;20408;-81
2021/05/25 03:08:05;;;;;;;1.20;1.10;;;;;;;;;;6264821;22;20418;-80
2021/05/25 03:10:33;;;;;;;2.40;1.27;;;;;;;;;;6272850;22;20392;-80
2021/05/25 03:13:01;;;;;;;2.33;1.20;;;;;;;;;;6269787;22;20455;-80
2021/05/25 03:15:30;;;;;;;2.53;1.20;;;;;;;;;;6276399;22;20403;-80
2021/05/25 03:17:57;;;;;;;1.60;1.00;;;;;;;;;;6272689;22;20457;-81
2021/05/25 03:20:24;;;;;;;1.20;1.00;;;;;;;;;;6246570;22;20447;-80
2021/05/25 03:22:52;;;;;;;2.53;1.20;;;;;;;;;;6275874;22;20396;-81
2021/05/25 03:25:19;;;;;;;1.50;1.10;;;;;;;;;;6267642;22;20398;-82
2021/05/25 03:27:46;;;;;;;1.10;0.90;;;;;;;;;;6263994;22;20433;-81
2021/05/25 03:30:14;;;;;;;1.40;1.00;;;;;;;;;;6273258;22;20515;-81
2021/05/25 03:32:41;;;;;;;1.50;0.87;;;;;;;;;;6273826;22;20717;-82
2021/05/25 03:35:09;;;;;;;1.20;0.83;;;;;;;;;;6267854;22;20798;-80
2021/05/25 03:37:38;;;;;;;1.70;1.43;;;;;;;;;;6274866;22;20961;-81
2021/05/25 03:40:07;;;;;;;2.50;1.10;;;;;;;;;;6267677;22;20802;-81
2021/05/25 03:42:34;;;;;;;2.83;2.03;;;;;;;;;;6237598;22;20410;-80
2021/05/25 03:45:01;;;;;;;1.40;1.10;;;;;;;;;;6264401;22;20400;-81
2021/05/25 03:47:28;;;;;;;1.50;1.00;;;;;;;;;;6240866;22;20407;-81
2021/05/25 03:50:06;;;;;;;1.60;1.27;;;;;;;;;;6246479;22;20727;-81
2021/05/25 03:52:34;;;;;;;1.77;1.17;;;;;;;;;;6270986;22;20484;-81
2021/05/25 03:55:03;;;;;;;2.20;1.00;;;;;;;;;;6264676;22;20491;-81
2021/05/25 04:00:13;;;;;;;1.90;1.00;;;;;;;;;;6271077;22;20641;-81
2021/05/25 04:02:40;;;;;;;1.20;1.00;;;;;;;;;;6272480;22;20486;-80
2021/05/25 04:05:07;;;;;;;1.50;1.40;;;;;;;;;;6265496;22;20881;-81
2021/05/25 04:07:35;;;;;;;1.53;1.03;;;;;;;;;;6276333;22;20762;-80
2021/05/25 04:10:01;;;;;;;1.57;1.40;;;;;;;;;;6268753;22;20416;-80
2021/05/25 04:12:28;;;;;;;2.10;1.20;;;;;;;;;;6272809;22;20400;-80
2021/05/25 04:14:56;;;;;;;2.27;1.20;;;;;;;;;;6270186;22;20409;-81
2021/05/25 04:17:23;;;;;;;1.70;1.50;;;;;;;;;;6265799;22;20441;-80
2021/05/25 04:19:49;;;;;;;1.77;1.20;;;;;;;;;;6268755;22;20443;-80
2021/05/25 04:22:16;;;;;;;1.93;1.17;;;;;;;;;;6271802;22;20429;-80
2021/05/25 04:24:43;;;;;;;1.07;0.90;;;;;;;;;;6273252;22;20994;-79
2021/05/25 04:27:10;;;;;;;1.37;1.00;;;;;;;;;;6272318;22;20396;-81
2021/05/25 04:29:37;;;;;;;4.27;1.30;;;;;;;;;;6273462;22;20420;-79
2021/05/25 04:32:07;;;;;;;1.20;1.10;;;;;;;;;;6269320;22;20407;-79
2021/05/25 04:34:34;;;;;;;2.30;1.53;;;;;;;;;;6267734;22;20435;-80
2021/05/25 04:37:01;;;;;;;1.30;1.13;;;;;;;;;;6273581;22;20400;-79
2021/05/25 04:39:28;;;;;;;1.40;1.03;;;;;;;;;;6268075;22;20451;-79
2021/05/25 04:41:55;;;;;;;1.03;0.93;;;;;;;;;;6276586;22;20388;-79
2021/05/25 04:44:22;;;;;;;1.30;1.10;;;;;;;;;;6277256;22;20407;-80
2021/05/25 04:46:49;;;;;;;1.37;1.17;;;;;;;;;;6276842;22;20391;-79
2021/05/25 04:49:17;;;;;;;1.73;1.30;;;;;;;;;;6278079;22;20469;-80
2021/05/25 04:51:43;;;;;;;1.50;1.07;;;;;;;;;;6273337;22;20423;-79
2021/05/25 04:54:10;;;;;;;2.07;1.50;;;;;;;;;;6273585;22;20788;-80
2021/05/25 04:56:39;;;;;;;1.57;1.10;;;;;;;;;;6273434;22;20415;-79
2021/05/25 04:59:06;;;;;;;1.50;1.00;;;;;;;;;;6274888;22;20454;-79
2021/05/25 05:01:33;;;;;;;1.40;1.10;;;;;;;;;;6274759;22;20870;-78
2021/05/25 05:03:59;;;;;;;1.33;0.93;;;;;;;;;;6274827;22;20396;-79
2021/05/25 05:06:27;;;;;;;1.67;1.10;;;;;;;;;;6277578;22;20486;-79
2021/05/25 05:08:54;;;;;;;2.27;1.10;;;;;;;;;;6274776;22;20921;-79
2021/05/25 05:11:21;;;;;;;2.30;1.50;;;;;;;;;;6268443;22;20410;-79
2021/05/25 05:13:49;;;;;;;2.40;1.10;;;;;;;;;;6275951;22;20404;-79
2021/05/25 05:16:15;;;;;;;3.67;1.70;;;;;;;;;;6268234;22;20412;-80
2021/05/25 05:18:43;;;;;;;1.47;1.10;;;;;;;;;;6273840;22;20565;-80
2021/05/25 05:21:09;;;;;;;1.40;1.20;;;;;;;;;;6273930;22;20778;-79
2021/05/25 05:23:37;;;;;;;2.07;1.20;;;;;;;;;;6269015;22;20453;-79
2021/05/25 05:26:04;;;;;;;2.33;1.30;;;;;;;;;;6271546;22;20404;-79
2021/05/25 05:28:31;;;;;;;1.33;1.20;;;;;;;;;;6277125;22;20447;-80
2021/05/25 05:30:58;;;;;;;1.80;1.37;;;;;;;;;;6272579;22;20717;-80
2021/05/25 05:33:25;;;;;;;1.90;1.20;;;;;;;;;;6264715;22;20395;-79
2021/05/25 05:35:51;;;;;;;1.70;1.40;;;;;;;;;;6271327;22;20410;-80
2021/05/25 05:38:18;;;;;;;3.87;1.10;;;;;;;;;;6275929;22;20438;-80
2021/05/25 05:40:47;;;;;;;4.20;1.40;;;;;;;;;;6268920;22;20444;-79
2021/05/25 05:43:13;;;;;;;1.40;1.10;;;;;;;;;;6274013;22;20411;-80
2021/05/25 05:45:40;;;;;;;1.93;1.47;;;;;;;;;;6274101;22;20400;-81
2021/05/25 05:48:08;;;;;;;2.90;1.60;;;;;;;;;;6267857;22;20404;-81
2021/05/25 05:50:34;;;;;;;2.27;1.40;;;;;;;;;;6266814;22;20504;-80
2021/05/25 05:53:01;;;;;;;1.80;1.13;;;;;;;;;;6271043;22;20407;-81
2021/05/25 05:55:28;;;;;;;2.60;1.47;;;;;;;;;;6267953;22;20400;-84
2021/05/25 05:57:57;;;;;;;1.90;1.30;;;;;;;;;;6246720;22;20411;-81
2021/05/25 06:00:25;;;;;;;2.33;1.20;;;;;;;;;;6270719;22;20534;-82
2021/05/25 06:02:51;;;;;;;2.40;1.50;;;;;;;;;;6264331;22;20461;-81
2021/05/25 06:05:18;;;;;;;2.10;1.63;;;;;;;;;;6272881;22;20400;-80
2021/05/25 06:07:45;;;;;;;2.10;1.50;;;;;;;;;;6245104;22;20498;-80
2021/05/25 06:10:12;;;;;;;3.03;1.90;;;;;;;;;;6264182;22;20482;-81
2021/05/25 06:12:39;;;;;;;2.23;2.03;;;;;;;;;;6270900;22;20475;-80
2021/05/25 06:15:08;;;;;;;2.23;1.70;;;;;;;;;;6245136;22;20406;-78
2021/05/25 06:17:36;;;;;;;1.93;1.73;;;;;;;;;;6267799;22;20419;-79
2021/05/25 06:20:03;;;;;;;2.07;1.47;;;;;;;;;;6273648;22;20447;-79
2021/05/25 06:22:30;;;;;;;2.50;1.43;;;;;;;;;;6273783;22;20400;-80
2021/05/25 06:24:57;;;;;;;3.70;1.70;;;;;;;;;;6274558;22;20428;-82
2021/05/25 06:27:24;;;;;;;1.77;1.07;;;;;;;;;;6275322;22;20403;-77
2021/05/25 06:29:52;;;;;;;3.37;1.23;;;;;;;;;;6267810;22;20420;-80
2021/05/25 06:32:20;;;;;;;1.20;1.03;;;;;;;;;;6273029;22;20454;-79
2021/05/25 06:34:48;;;;;;;1.60;1.20;;;;;;;;;;6273418;22;20406;-78
2021/05/25 06:37:15;;;;;;;3.57;1.30;;;;;;;;;;6271417;22;20453;-79
2021/05/25 06:39:42;;;;;;;1.10;1.00;;;;;;;;;;6272475;22;20446;-82
2021/05/25 06:42:10;;;;;;;1.10;0.93;;;;;;;;;;6272232;22;20400;-77
2021/05/25 06:44:39;;;;;;;2.37;1.27;;;;;;;;;;6265267;22;20396;-77
2021/05/25 06:47:06;;;;;;;1.87;1.00;;;;;;;;;;6273029;22;20400;-77
2021/05/25 06:49:34;;;;;;;2.33;1.20;;;;;;;;;;6274707;22;20424;-78
2021/05/25 06:52:00;;;;;;;1.30;0.93;;;;;;;;;;6269558;22;20511;-81
2021/05/25 06:54:29;;;;;;;1.43;1.20;;;;;;;;;;6276598;22;20407;-82
2021/05/25 06:56:56;;;;;;;1.10;1.00;;;;;;;;;;6275038;22;20974;-83
2021/05/25 06:59:22;;;;;;;1.70;1.30;;;;;;;;;;6267403;22;20495;-84
2021/05/25 07:01:49;;;;;;;1.40;1.20;;;;;;;;;;6273365;22;20839;-84
2021/05/25 07:04:17;;;;;;;1.17;1.00;;;;;;;;;;6271282;22;20399;-83
2021/05/25 07:06:45;;;;;;;1.10;0.90;;;;;;;;;;6264764;22;20495;-84
2021/05/25 07:09:12;;;;;;;1.03;0.90;;;;;;;;;;6272367;22;20419;-85
2021/05/25 07:11:39;;;;;;;1.87;0.83;;;;;;;;;;6274878;22;20410;-80
2021/05/25 07:14:06;;;;;;;1.60;1.10;;;;;;;;;;6267525;22;20400;-80
2021/05/25 07:16:34;;;;;;;1.43;0.97;;;;;;;;;;6268224;22;20407;-80
2021/05/25 07:19:00;;;;;;;1.70;1.20;;;;;;;;;;6272266;22;20417;-83
2021/05/25 07:21:27;;;;;;;1.10;1.00;;;;;;;;;;6269433;22;20495;-83
2021/05/25 07:23:55;;;;;;;1.70;1.27;;;;;;;;;;6272100;22;20487;-85
2021/05/25 07:26:22;;;;;;;1.57;0.90;;;;;;;;;;6272690;22;20453;-84
2021/05/25 07:28:49;;;;;;;1.40;1.17;;;;;;;;;;6263768;22;20792;-82
2021/05/25 07:31:17;;;;;;;1.37;1.20;;;;;;;;;;6267268;22;20399;-83
2021/05/25 07:33:44;;;;;;;1.53;1.10;;;;;;;;;;6270622;22;20430;-81
2021/05/25 07:36:11;;;;;;;2.00;1.60;;;;;;;;;;6270028;22;20915;-84
2021/05/25 07:38:38;;;;;;;1.60;1.43;;;;;;;;;;6273308;22;20602;-86
2021/05/25 07:41:06;;;;;;;3.00;1.17;;;;;;;;;;6267588;22;20843;-81
2021/05/25 07:43:33;;;;;;;1.93;1.30;;;;;;;;;;6265833;22;20426;-81
2021/05/25 07:46:01;;;;;;;1.87;1.40;;;;;;;;;;6273227;22;20410;-84
2021/05/25 07:48:27;;;;;;;3.60;2.10;;;;;;;;;;6271556;22;20948;-83
2021/05/25 07:50:54;;;;;;;2.73;2.30;;;;;;;;;;6265389;22;20463;-83
2021/05/25 07:53:21;;;;;;;2.90;2.53;;;;;;;;;;6274096;22;20475;-83
2021/05/25 07:55:48;;;;;;;2.90;2.47;;;;;;;;;;6270118;22;21523;-82
2021/05/25 07:58:16;;;;;;;2.80;1.97;;;;;;;;;;6271851;22;20408;-82
2021/05/25 08:00:43;;;;;;;3.17;2.40;;;;;;;;;;6268716;22;20447;-85
2021/05/25 08:03:10;;;;;;;2.60;2.40;;;;;;;;;;6271228;22;20460;-84
2021/05/25 08:05:37;;;;;;;1.50;1.30;;;;;;;;;;6273871;22;20418;-85
2021/05/25 08:08:04;;;;;;;1.80;1.40;;;;;;;;;;6268915;22;21289;-82
2021/05/25 08:10:31;;;;;;;3.03;1.50;;;;;;;;;;6272010;22;20408;-85
2021/05/25 08:12:58;;;;;;;1.70;1.40;;;;;;;;;;6269215;22;20485;-85
2021/05/25 08:15:27;;;;;;;2.90;1.70;;;;;;;;;;6263440;22;20498;-84
2021/05/25 08:18:04;;;;;;;3.60;1.70;;;;;;;;;;6263997;22;20427;-85
2021/05/25 08:20:31;;;;;;;3.20;1.87;;;;;;;;;;6251934;22;20447;-88
2021/05/25 08:23:01;;;;;;;2.10;1.50;;;;;;;;;;6274964;22;20440;-84
2021/05/25 08:25:32;;;;;;;3.20;1.80;;;;;;;;;;6275546;22;20765;-83
2021/05/25 08:28:00;;;;;;;1.80;1.40;;;;;;;;;;6274757;22;20407;-82
2021/05/25 08:30:28;;;;;;;1.87;1.27;;;;;;;;;;6273437;22;20398;-84
2021/05/25 08:32:55;;;;;;;1.20;1.00;;;;;;;;;;6275370;22;20406;-85
2021/05/25 08:35:23;;;;;;;1.10;1.00;;;;;;;;;;6268460;22;20881;-85
2021/05/25 08:37:51;;;;;;;2.40;1.20;;;;;;;;;;6271742;22;20392;-86
2021/05/25 08:40:18;;;;;;;1.50;1.10;;;;;;;;;;6276567;22;20490;-86
2021/05/25 08:42:46;;;;;;;1.70;1.40;;;;;;;;;;6277171;22;20878;-85
2021/05/25 08:45:14;;;;;;;1.60;1.07;;;;;;;;;;6272374;22;20403;-82
2021/05/25 08:47:45;;;;;;;1.40;1.07;;;;;;;;;;6273098;22;20972;-83
2021/05/25 08:50:14;;;;;;;1.37;1.07;;;;;;;;;;6243089;22;20503;-85
2021/05/25 08:52:41;;;;;;;2.03;1.23;;;;;;;;;;6243817;22;20803;-83
2021/05/25 08:55:08;;;;;;;1.30;1.00;;;;;;;;;;6274807;22;20400;-82
2021/05/25 08:57:36;;;;;;;1.03;0.93;;;;;;;;;;6271030;22;20456;-85
2021/05/25 09:00:04;;;;;;;2.73;1.37;;;;;;;;;;6276977;22;20453;-85
2021/05/25 09:02:31;;;;;;;1.57;1.10;;;;;;;;;;6277344;22;20370;-86
2021/05/25 09:05:02;;;;;;;1.43;1.20;;;;;;;;;;6268915;22;20381;-83
2021/05/25 09:07:37;;;;;;;2.57;1.40;;;;;;;;;;6276167;22;20367;-83
2021/05/25 09:10:04;;;;;;;2.97;1.30;;;;;;;;;;6273393;22;20417;-86
2021/05/25 09:12:37;;;;;;;2.40;1.03;;;;;;;;;;6265844;22;20459;-85
2021/05/25 09:15:04;;;;;;;1.97;1.30;;;;;;;;;;6274948;22;20800;-84
2021/05/25 09:17:31;;;;;;;2.07;1.30;;;;;;;;;;6274529;22;20432;-85
2021/05/25 09:19:59;;;;;;;1.47;1.10;;;;;;;;;;6272720;22;20521;-85
2021/05/25 09:22:28;;;;;;;1.70;1.00;;;;;;;;;;6275852;22;20380;-85
2021/05/25 09:25:17;;;;;;;1.30;1.00;;;;;;;;;;6270276;22;20375;-83
2021/05/25 09:27:48;;;;;;;3.10;1.30;;;;;;;;;;6273017;22;20905;-82
2021/05/25 09:30:17;;;;;;;1.10;1.00;;;;;;;;;;6268500;22;20392;-82
2021/05/25 09:32:47;;;;;;;3.97;1.03;;;;;;;;;;6271260;22;20384;-83
2021/05/25 09:35:15;;;;;;;2.00;1.30;;;;;;;;;;6247755;22;20410;-80
2021/05/25 09:37:43;;;;;;;2.90;1.27;;;;;;;;;;6248219;22;20760;-80
2021/05/25 09:40:11;;;;;;;2.23;1.40;;;;;;;;;;6267465;22;20432;-82
2021/05/25 09:42:38;;;;;;;2.90;2.10;;;;;;;;;;6270759;22;20422;-82
2021/05/25 09:45:06;;;;;;;4.27;1.87;;;;;;;;;;6266896;22;20420;-83
2021/05/25 09:47:34;;;;;;;3.20;1.70;;;;;;;;;;6268826;22;20905;-82
2021/05/25 09:50:01;;;;;;;2.20;1.50;;;;;;;;;;6247613;22;20454;-80
2021/05/25 09:52:29;;;;;;;5.33;1.73;;;;;;;;;;6271554;22;20419;-82
2021/05/25 09:55:10;;;;;;;2.40;1.20;;;;;;;;;;6263273;22;20366;-83
2021/05/25 09:57:41;;;;;;;3.83;1.50;;;;;;;;;;6248608;22;20480;-83
2021/05/25 10:00:22;;;;;;;2.23;1.43;;;;;;;;;;6247585;22;20794;-83
2021/05/25 10:03:10;;;;;;;6.80;1.77;;;;;;;;;;6266989;22;20402;-84
2021/05/25 10:05:37;;;;;;;4.67;2.00;;;;;;;;;;6210267;23;20688;-83
2021/05/25 10:08:05;;;;;;;1.90;1.57;;;;;;;;;;6211580;23;21344;-82
2021/05/25 10:10:33;;;;;;;3.60;1.63;;;;;;;;;;6208301;23;20492;-83
2021/05/25 10:13:00;;;;;;;5.13;3.00;;;;;;;;;;6209226;23;20501;-83
2021/05/25 10:15:28;;;;;;;3.27;2.30;;;;;;;;;;6208528;23;20436;-86
2021/05/25 10:18:09;;;;;;;4.60;2.27;;;;;;;;;;6209531;23;20404;-86
2021/05/25 10:20:36;;;;;;;2.47;2.27;;;;;;;;;;6210642;23;20457;-86
2021/05/25 10:23:03;;;;;;;8.67;2.77;;;;;;;;;;6218996;22;20726;-85
2021/05/25 10:25:34;;;;;;;2.60;2.03;;;;;;;;;;6271473;22;20400;-83
2021/05/25 10:28:02;;;;;;;2.40;1.97;;;;;;;;;;6266773;22;20797;-81
2021/05/25 10:30:34;;;;;;;5.30;2.27;;;;;;;;;;6245093;22;20510;-85
2021/05/25 10:33:15;;;;;;;3.73;2.43;;;;;;;;;;6273201;22;20421;-85
2021/05/25 10:35:50;;;;;;;5.20;2.27;;;;;;;;;;6251554;22;20413;-85
2021/05/25 10:38:17;;;;;;;3.30;2.07;;;;;;;;;;6265800;22;20408;-84
2021/05/25 10:40:47;;;;;;;4.70;2.20;;;;;;;;;;6273675;22;20537;-85
2021/05/25 10:43:28;;;;;;;3.30;1.87;;;;;;;;;;6244019;22;20407;-82
2021/05/25 10:46:14;;;;;;;4.50;1.90;;;;;;;;;;6267357;22;20411;-83
2021/05/25 10:48:49;;;;;;;2.10;1.90;;;;;;;;;;6268719;22;20512;-84
2021/05/25 10:51:16;;;;;;;4.03;1.97;;;;;;;;;;6247052;22;20446;-87
2021/05/25 10:53:43;;;;;;;3.57;2.00;;;;;;;;;;6271459;22;20399;-84
2021/05/25 10:56:24;;;;;;;3.30;2.80;;;;;;;;;;6272403;22;20419;-82
2021/05/25 10:59:00;;;;;;;4.80;1.70;;;;;;;;;;6248753;22;20433;-85
2021/05/25 11:01:30;;;;;;;2.33;1.63;;;;;;;;;;6265847;22;20537;-85
2021/05/25 11:04:09;;;;;;;2.70;1.70;;;;;;;;;;6244188;22;20404;-84
2021/05/25 11:06:36;;;;;;;2.60;1.40;;;;;;;;;;6270716;22;20497;-82
2021/05/25 11:09:17;;;;;;;1.87;1.60;;;;;;;;;;6268657;22;20440;-84
2021/05/25 11:11:45;;;;;;;3.10;1.63;;;;;;;;;;6270959;22;20401;-81
2021/05/25 11:14:13;;;;;;;3.37;1.73;;;;;;;;;;6272423;22;20413;-80
2021/05/25 11:16:40;;;;;;;4.90;1.90;;;;;;;;;;6273299;22;20482;-86
2021/05/25 11:19:33;;;;;;;2.23;1.87;;;;;;;;;;6272589;22;20576;-83
2021/05/25 11:22:13;;;;;;;1.77;1.60;;;;;;;;;;6246497;22;20493;-82
2021/05/25 11:24:42;;;;;;;5.03;1.80;;;;;;;;;;6274311;22;20410;-82
2021/05/25 11:27:11;;;;;;;7.93;2.50;;;;;;;;;;6247041;22;20511;-84
2021/05/25 11:29:39;;;;;;;2.30;2.10;;;;;;;;;;6269866;22;20431;-84
2021/05/25 11:32:08;;;;;;;4.00;2.03;;;;;;;;;;6276273;22;20884;-81
2021/05/25 11:34:35;;;;;;;4.00;2.20;;;;;;;;;;6242868;22;21036;-84
2021/05/25 11:37:03;;;;;;;5.90;2.37;;;;;;;;;;6272238;22;20944;-83
2021/05/25 11:39:30;;;;;;;6.23;2.70;;;;;;;;;;6271325;22;20430;-83
2021/05/25 11:41:57;;;;;;;5.67;2.60;;;;;;;;;;6267230;22;20463;-84
2021/05/25 11:44:32;;;;;;;4.20;2.30;;;;;;;;;;6240236;22;20432;-86
2021/05/25 11:47:03;;;;;;;3.27;2.27;;;;;;;;;;6242465;22;20453;-82
2021/05/25 11:49:33;;;;;;;4.67;2.20;;;;;;;;;;6263272;22;20417;-82
2021/05/25 11:51:59;;;;;;;2.47;2.00;;;;;;;;;;6261456;22;20938;-84
2021/05/25 11:54:29;;;;;;;2.70;2.00;;;;;;;;;;6266979;22;20401;-82
2021/05/25 11:56:56;;;;;;;3.27;2.33;;;;;;;;;;6261968;22;20398;-85
2021/05/25 11:59:24;;;;;;;4.80;2.40;;;;;;;;;;6271488;22;20395;-84
2021/05/25 12:01:52;;;;;;;2.67;1.87;;;;;;;;;;6270989;22;20422;-81
2021/05/25 12:04:19;;;;;;;3.20;2.00;;;;;;;;;;6265420;22;20370;-80
2021/05/25 12:06:54;;;;;;;2.27;1.53;;;;;;;;;;6266361;22;20914;-86
2021/05/25 12:09:22;;;;;;;3.50;1.37;;;;;;;;;;6270797;22;20394;-83
2021/05/25 12:11:48;;;;;;;2.43;1.80;;;;;;;;;;6272408;22;20379;-87
2021/05/25 12:14:16;;;;;;;3.20;2.07;;;;;;;;;;6268978;22;20396;-80
2021/05/25 12:16:44;;;;;;;3.60;1.70;;;;;;;;;;6273747;22;20757;-81
2021/05/25 12:19:21;;;;;;;4.00;1.73;;;;;;;;;;6269151;22;20524;-90
2021/05/25 12:21:48;;;;;;;1.63;1.50;;;;;;;;;;6271754;22;20399;-82
2021/05/25 12:24:15;;;;;;;4.83;1.53;;;;;;;;;;6270925;22;20381;-82
2021/05/25 12:26:49;;;;;;;6.27;2.30;;;;;;;;;;6263902;22;20397;-81
2021/05/25 12:29:16;;;;;;;3.50;2.30;;;;;;;;;;6271281;22;20460;-84
2021/05/25 12:31:43;;;;;;;6.37;3.00;;;;;;;;;;6272737;22;20454;-82
2021/05/25 12:34:10;;;;;;;4.27;1.90;;;;;;;;;;6270484;22;20466;-83
2021/05/25 12:36:51;;;;;;;7.47;2.90;;;;;;;;;;6269299;22;20409;-81
2021/05/25 12:39:25;;;;;;;6.60;1.77;;;;;;;;;;6272609;22;20909;-82
2021/05/25 12:41:53;;;;;;;1.70;1.60;;;;;;;;;;6273135;22;20396;-84
2021/05/25 12:44:21;;;;;;;5.17;1.57;;;;;;;;;;6273646;22;20461;-83
2021/05/25 12:46:50;;;;;;;5.77;1.80;;;;;;;;;;6275095;22;20470;-83
2021/05/25 12:49:26;;;;;;;5.53;2.10;;;;;;;;;;6275582;22;20422;-83
2021/05/25 12:51:54;;;;;;;1.93;1.60;;;;;;;;;;6275007;22;20796;-84
2021/05/25 12:54:22;;;;;;;6.13;1.90;;;;;;;;;;6275917;22;20661;-81
2021/05/25 12:56:56;;;;;;;3.10;1.83;;;;;;;;;;6271013;22;20404;-83
2021/05/25 12:59:23;;;;;;;3.40;2.20;;;;;;;;;;6245477;22;20498;-82
2021/05/25 13:01:49;;;;;;;2.00;1.73;;;;;;;;;;6274403;22;20448;-81
2021/05/25 13:04:24;;;;;;;3.73;1.70;;;;;;;;;;6275154;22;20403;-82
2021/05/25 13:06:54;;;;;;;1.63;1.40;;;;;;;;;;6274411;22;20943;-83
2021/05/25 13:09:27;;;;;;;6.37;1.40;;;;;;;;;;6251323;22;20415;-83
2021/05/25 13:11:58;;;;;;;3.40;1.77;;;;;;;;;;6251369;22;20408;-84
2021/05/25 13:14:25;;;;;;;2.87;1.47;;;;;;;;;;6251232;22;20893;-83
2021/05/25 13:16:56;;;;;;;2.00;1.60;;;;;;;;;;6275947;22;20400;-84
2021/05/25 13:19:32;;;;;;;5.23;1.90;;;;;;;;;;6273114;22;20507;-83
2021/05/25 13:21:59;;;;;;;3.23;1.87;;;;;;;;;;6273069;22;20482;-83
2021/05/25 13:24:27;;;;;;;2.50;1.67;;;;;;;;;;6275103;22;20487;-84
2021/05/25 13:26:53;;;;;;;1.80;1.70;;;;;;;;;;6273238;22;20406;-84
2021/05/25 13:29:21;;;;;;;5.00;1.77;;;;;;;;;;6275111;22;20416;-84
2021/05/25 13:31:49;;;;;;;2.30;1.40;;;;;;;;;;6274055;22;20400;-82
2021/05/25 13:34:17;;;;;;;3.30;1.70;;;;;;;;;;6273715;22;20821;-80
2021/05/25 13:36:44;;;;;;;4.33;2.07;;;;;;;;;;6273943;22;20452;-80
2021/05/25 13:39:12;;;;;;;1.73;1.53;;;;;;;;;;6247742;22;20420;-82
2021/05/25 13:41:40;;;;;;;2.40;1.60;;;;;;;;;;6274766;22;20867;-83
2021/05/25 13:44:08;;;;;;;2.50;1.80;;;;;;;;;;6275736;22;20400;-82
2021/05/25 13:46:36;;;;;;;4.33;1.83;;;;;;;;;;6277451;22;20713;-80
2021/05/25 13:49:04;;;;;;;3.30;2.07;;;;;;;;;;6250350;22;20454;-81
2021/05/25 13:51:31;;;;;;;4.97;2.47;;;;;;;;;;6250520;22;20481;-81
2021/05/25 13:53:59;;;;;;;4.23;2.70;;;;;;;;;;6248346;22;20393;-82
2021/05/25 13:56:29;;;;;;;7.67;2.30;;;;;;;;;;6246170;22;20900;-81
2021/05/25 13:58:59;;;;;;;3.80;2.17;;;;;;;;;;6271509;22;20416;-84
2021/05/25 14:01:29;;;;;;;4.87;2.17;;;;;;;;;;6273192;22;20446;-86
2021/05/25 14:03:56;;;;;;;4.30;2.40;;;;;;;;;;6273795;22;20402;-81
2021/05/25 14:06:23;;;;;;;3.43;2.13;;;;;;;;;;6275344;22;20410;-82
2021/05/25 14:08:50;;;;;;;3.33;1.90;;;;;;;;;;6248837;22;20499;-83
2021/05/25 14:11:18;;;;;;;5.57;1.97;;;;;;;;;;6271939;22;20479;-82
2021/05/25 14:13:45;;;;;;;2.20;1.77;;;;;;;;;;6247252;22;20495;-81
2021/05/25 14:16:14;;;;;;;4.70;2.27;;;;;;;;;;6273822;22;20426;-80
2021/05/25 14:18:44;;;;;;;4.87;1.97;;;;;;;;;;6274444;22;20490;-82
2021/05/25 14:21:12;;;;;;;3.87;2.10;;;;;;;;;;6280187;22;20446;-81
2021/05/25 14:23:39;;;;;;;3.53;2.50;;;;;;;;;;6276986;22;20457;-84
2021/05/25 14:26:06;;;;;;;3.63;2.00;;;;;;;;;;6276463;22;20437;-84
2021/05/25 14:28:33;;;;;;;4.17;1.67;;;;;;;;;;6276764;22;20426;-85
2021/05/25 14:31:00;;;;;;;5.00;1.77;;;;;;;;;;6275585;22;20410;-81
2021/05/25 14:33:28;;;;;;;5.60;2.10;;;;;;;;;;6272497;22;20499;-83
2021/05/25 14:35:55;;;;;;;2.87;1.60;;;;;;;;;;6273148;22;20406;-83
2021/05/25 14:38:23;;;;;;;3.87;1.87;;;;;;;;;;6273395;22;20400;-85
2021/05/25 14:40:50;;;;;;;3.17;1.70;;;;;;;;;;6273731;22;20505;-81
2021/05/25 14:43:17;;;;;;;2.80;1.60;;;;;;;;;;6247635;22;20431;-83
2021/05/25 14:45:45;;;;;;;2.90;1.50;;;;;;;;;;6276315;22;20397;-84
2021/05/25 14:48:15;;;;;;;3.40;1.70;;;;;;;;;;6275092;22;20404;-83
2021/05/25 14:50:47;;;;;;;4.00;1.90;;;;;;;;;;6275456;22;20441;-84
2021/05/25 14:53:18;;;;;;;2.50;1.97;;;;;;;;;;6276527;22;20404;-81